Time;durP1;ratioP1;P1;durP2;ratioP2;P2;SDS_P1;SDS_P2;PMS_P1;PMS_P2;Temp;Humidity;BMP_temperature;BMP_pressure;BME280_temperature;BME280_humidity;BME280_pressure;Samples;Min_cycle;Max_cycle;Signal;HPM_P1;HPM_P2
2021/09/03 00:01:11;;;;;;;7.50;6.80;;;12.30;99.90;;;;;;5036824;28;20441;-87
2021/09/03 00:03:37;;;;;;;7.90;6.60;;;12.30;99.90;;;;;;5054732;28;20196;-87
2021/09/03 00:06:03;;;;;;;9.20;8.17;;;12.30;99.90;;;;;;5046336;28;20894;-88
2021/09/03 00:08:29;;;;;;;8.63;6.90;;;12.30;99.90;;;;;;5032458;28;20693;-87
2021/09/03 00:10:54;;;;;;;7.90;7.20;;;12.30;99.90;;;;;;5037536;28;20283;-87
2021/09/03 00:13:20;;;;;;;8.43;7.63;;;12.20;99.90;;;;;;5050649;28;20648;-87
2021/09/03 00:15:46;;;;;;;7.93;7.13;;;12.10;99.90;;;;;;5048512;28;20278;-87
2021/09/03 00:18:12;;;;;;;10.63;7.67;;;12.10;99.90;;;;;;5052928;28;20665;-88
2021/09/03 00:20:38;;;;;;;8.63;7.83;;;12.10;99.90;;;;;;5048643;28;20295;-87
2021/09/03 00:23:04;;;;;;;7.60;6.90;;;12.20;99.90;;;;;;5030985;28;21240;-87
2021/09/03 00:25:29;;;;;;;9.50;7.30;;;12.30;99.90;;;;;;5050309;28;20217;-88
2021/09/03 00:27:55;;;;;;;8.50;7.63;;;12.30;99.90;;;;;;5037108;28;20486;-87
2021/09/03 00:30:21;;;;;;;10.73;7.23;;;12.40;99.90;;;;;;5069359;28;20234;-87
2021/09/03 00:32:47;;;;;;;9.53;8.30;;;12.40;99.90;;;;;;5040945;28;20446;-87
2021/09/03 00:35:12;;;;;;;7.50;6.80;;;12.30;99.90;;;;;;5037661;28;20231;-87
2021/09/03 00:37:38;;;;;;;7.93;7.13;;;12.30;99.90;;;;;;5052061;28;20202;-87
2021/09/03 00:40:05;;;;;;;8.33;7.43;;;12.30;99.90;;;;;;5034567;28;20960;-87
2021/09/03 00:42:31;;;;;;;7.70;7.00;;;12.30;99.90;;;;;;5032721;28;20562;-87
2021/09/03 00:44:57;;;;;;;7.57;6.77;;;12.30;99.90;;;;;;5031493;28;20437;-87
2021/09/03 00:47:23;;;;;;;7.10;6.40;;;12.40;99.90;;;;;;5035717;28;20302;-87
2021/09/03 00:49:51;;;;;;;7.23;6.53;;;12.40;99.90;;;;;;5049744;28;20470;-87
2021/09/03 00:52:17;;;;;;;7.60;6.90;;;12.40;99.90;;;;;;5035066;28;20442;-87
2021/09/03 00:54:43;;;;;;;6.83;6.13;;;12.40;99.90;;;;;;5046938;28;22220;-87
2021/09/03 00:57:10;;;;;;;9.43;7.60;;;12.20;99.90;;;;;;5049126;28;20454;-87
2021/09/03 00:59:36;;;;;;;6.97;6.10;;;12.00;99.90;;;;;;5031461;28;20543;-87
2021/09/03 01:02:02;;;;;;;7.23;6.53;;;12.00;99.90;;;;;;5036197;28;20584;-87
2021/09/03 01:04:28;;;;;;;8.97;7.20;;;11.90;99.90;;;;;;5050997;28;20545;-86
2021/09/03 01:06:53;;;;;;;6.57;5.93;;;11.80;99.90;;;;;;5031090;28;20741;-86
2021/09/03 01:09:19;;;;;;;8.30;5.97;;;11.70;99.90;;;;;;5038245;28;20184;-87
2021/09/03 01:11:45;;;;;;;7.63;6.87;;;11.80;99.90;;;;;;5035283;28;21193;-87
2021/09/03 01:14:10;;;;;;;7.60;6.87;;;11.80;99.90;;;;;;5042402;28;20192;-87
2021/09/03 01:16:36;;;;;;;7.20;6.10;;;11.80;99.90;;;;;;5031401;28;20438;-87
2021/09/03 01:19:02;;;;;;;9.27;6.70;;;11.80;99.90;;;;;;5030325;28;20176;-88
2021/09/03 01:21:28;;;;;;;6.90;6.30;;;11.90;99.90;;;;;;5046706;28;20454;-87
2021/09/03 01:23:54;;;;;;;9.03;7.07;;;11.80;99.90;;;;;;5031299;28;20491;-86
2021/09/03 01:26:20;;;;;;;7.53;6.73;;;11.70;99.90;;;;;;5031791;28;20574;-86
2021/09/03 01:28:47;;;;;;;7.80;7.00;;;11.70;99.90;;;;;;5034061;28;20938;-86
2021/09/03 01:31:13;;;;;;;6.73;6.07;;;11.60;99.90;;;;;;5048124;28;20492;-87
2021/09/03 01:33:38;;;;;;;8.63;6.43;;;11.70;99.90;;;;;;5029635;28;20533;-87
2021/09/03 01:36:04;;;;;;;7.37;6.67;;;11.70;99.90;;;;;;5045620;28;20190;-87
2021/09/03 01:38:30;;;;;;;7.90;7.10;;;11.60;99.90;;;;;;5031739;28;20227;-88
2021/09/03 01:40:58;;;;;;;6.33;5.73;;;11.50;99.90;;;;;;5032636;28;20241;-87
2021/09/03 01:43:24;;;;;;;6.13;5.57;;;11.40;99.90;;;;;;5053982;28;20192;-87
2021/09/03 01:45:49;;;;;;;7.53;6.50;;;11.40;99.90;;;;;;5048477;28;20461;-86
2021/09/03 01:48:15;;;;;;;7.93;6.77;;;11.40;99.90;;;;;;5053609;28;20219;-86
2021/09/03 01:50:41;;;;;;;6.87;6.27;;;11.20;99.90;;;;;;5031521;28;20825;-86
2021/09/03 01:53:06;;;;;;;7.83;6.40;;;11.30;99.90;;;;;;5052337;28;20215;-86
2021/09/03 01:55:32;;;;;;;6.80;6.10;;;11.30;99.90;;;;;;5053500;28;20554;-86
2021/09/03 01:58:00;;;;;;;6.67;5.97;;;11.20;99.90;;;;;;5051601;28;20658;-85
2021/09/03 02:00:26;;;;;;;6.70;6.00;;;11.20;99.90;;;;;;5047730;28;20227;-86
2021/09/03 02:02:52;;;;;;;7.77;6.93;;;11.20;99.90;;;;;;5036468;28;20551;-86
2021/09/03 02:05:17;;;;;;;8.17;6.60;;;11.20;99.90;;;;;;5033556;28;20269;-86
2021/09/03 02:07:43;;;;;;;7.07;6.40;;;11.20;99.90;;;;;;5053469;28;20370;-86
2021/09/03 02:10:10;;;;;;;7.73;6.37;;;11.20;99.90;;;;;;5069839;28;20261;-86
2021/09/03 02:12:35;;;;;;;8.17;7.37;;;11.10;99.90;;;;;;5052959;28;20207;-86
2021/09/03 02:15:02;;;;;;;7.70;6.47;;;11.10;99.90;;;;;;5050506;28;22678;-85
2021/09/03 02:17:27;;;;;;;7.13;6.40;;;11.00;99.90;;;;;;5037334;28;20196;-85
2021/09/03 02:19:53;;;;;;;6.50;5.90;;;11.00;99.90;;;;;;5049066;28;20449;-85
2021/09/03 02:22:19;;;;;;;6.40;5.70;;;11.10;99.90;;;;;;5038697;28;20277;-85
2021/09/03 02:24:44;;;;;;;6.47;5.87;;;11.10;99.90;;;;;;5051173;28;20183;-85
2021/09/03 02:27:10;;;;;;;7.03;6.23;;;11.20;99.90;;;;;;5053693;28;20247;-85
2021/09/03 02:29:36;;;;;;;7.80;6.37;;;11.10;99.90;;;;;;5054543;28;20187;-86
2021/09/03 02:32:01;;;;;;;6.50;5.73;;;11.10;99.90;;;;;;5056488;28;20283;-85
2021/09/03 02:34:27;;;;;;;7.80;6.30;;;11.10;99.90;;;;;;5048320;28;21331;-85
2021/09/03 02:36:53;;;;;;;6.37;5.77;;;10.90;99.90;;;;;;5035663;28;20660;-85
2021/09/03 02:39:18;;;;;;;6.90;6.20;;;10.90;99.90;;;;;;5052718;28;20208;-86
2021/09/03 02:41:44;;;;;;;6.73;5.43;;;11.00;99.90;;;;;;5035519;28;20195;-86
2021/09/03 02:44:18;;;;;;;10.80;7.03;;;11.00;99.90;;;;;;5047677;28;20647;-86
2021/09/03 02:46:43;;;;;;;6.90;6.07;;;11.00;99.90;;;;;;5039506;28;20234;-86
2021/09/03 02:49:09;;;;;;;8.00;7.20;;;11.00;99.90;;;;;;5034913;28;21023;-86
2021/09/03 02:51:35;;;;;;;7.63;6.90;;;10.90;99.90;;;;;;5034587;28;20186;-86
2021/09/03 02:54:00;;;;;;;7.77;6.47;;;11.00;99.90;;;;;;5035578;28;20272;-86
2021/09/03 02:56:26;;;;;;;7.53;6.07;;;10.90;99.90;;;;;;5036758;28;20558;-86
2021/09/03 02:58:51;;;;;;;6.60;5.93;;;10.80;99.90;;;;;;5034043;28;20186;-86
2021/09/03 03:01:17;;;;;;;6.90;5.90;;;10.70;99.90;;;;;;5040053;28;20257;-86
2021/09/03 03:03:43;;;;;;;7.97;6.27;;;10.70;99.90;;;;;;5040949;28;20203;-86
2021/09/03 03:06:08;;;;;;;6.50;5.90;;;10.70;99.90;;;;;;5036282;28;20192;-86
2021/09/03 03:08:34;;;;;;;6.73;6.07;;;10.60;99.90;;;;;;5056517;28;20220;-86
2021/09/03 03:11:00;;;;;;;6.90;5.00;;;10.60;99.90;;;;;;5053758;28;20188;-86
2021/09/03 03:13:27;;;;;;;6.03;5.43;;;10.60;99.90;;;;;;5036340;28;20282;-86
2021/09/03 03:15:53;;;;;;;7.33;6.43;;;10.60;99.90;;;;;;5047526;28;20218;-86
2021/09/03 03:18:20;;;;;;;6.57;6.00;;;10.70;99.90;;;;;;5038506;28;21294;-86
2021/09/03 03:20:46;;;;;;;6.77;6.10;;;10.70;99.90;;;;;;5033698;28;20452;-86
2021/09/03 03:23:12;;;;;;;8.07;7.30;;;10.80;99.90;;;;;;5035710;28;20450;-85
2021/09/03 03:25:39;;;;;;;9.20;8.30;;;10.90;99.90;;;;;;5037298;28;20442;-85
2021/09/03 03:28:05;;;;;;;9.20;8.23;;;10.90;99.90;;;;;;5037481;28;20216;-85
2021/09/03 03:30:31;;;;;;;8.13;7.37;;;10.90;99.90;;;;;;5026906;28;20490;-85
2021/09/03 03:33:00;;;;;;;9.23;8.30;;;10.80;99.90;;;;;;5034652;28;20446;-86
2021/09/03 03:35:25;;;;;;;9.00;7.53;;;10.80;99.90;;;;;;5034316;28;20507;-86
2021/09/03 03:37:51;;;;;;;8.57;7.37;;;10.80;99.90;;;;;;5038402;28;20434;-86
2021/09/03 03:40:17;;;;;;;8.93;8.10;;;10.70;99.90;;;;;;5048377;28;20445;-86
2021/09/03 03:42:49;;;;;;;9.30;8.40;;;10.60;99.90;;;;;;5050918;28;20187;-86
2021/09/03 03:45:15;;;;;;;8.47;7.50;;;10.60;99.90;;;;;;5050921;28;20442;-86
2021/09/03 03:47:40;;;;;;;8.83;7.93;;;10.50;99.90;;;;;;5067916;28;20492;-86
2021/09/03 03:50:07;;;;;;;8.50;7.70;;;10.50;99.90;;;;;;5033578;28;20192;-86
2021/09/03 03:52:33;;;;;;;9.93;9.00;;;10.40;99.90;;;;;;5034304;28;20219;-86
2021/09/03 03:54:59;;;;;;;9.10;8.20;;;10.20;99.90;;;;;;5036365;28;20477;-86
2021/09/03 03:57:27;;;;;;;9.13;7.53;;;10.10;99.90;;;;;;5054259;28;20244;-85
2021/09/03 03:59:53;;;;;;;9.03;7.40;;;10.00;99.90;;;;;;5030656;28;20531;-85
2021/09/03 04:02:18;;;;;;;8.87;7.10;;;10.00;99.90;;;;;;5046168;28;20434;-86
2021/09/03 04:04:44;;;;;;;8.20;7.40;;;9.90;99.90;;;;;;5047264;28;20691;-85
2021/09/03 04:07:10;;;;;;;8.50;7.20;;;10.00;99.90;;;;;;5060804;28;20223;-85
2021/09/03 04:09:35;;;;;;;9.77;7.17;;;10.00;99.90;;;;;;5037511;28;20184;-85
2021/09/03 04:12:01;;;;;;;8.00;7.20;;;10.00;99.90;;;;;;5051804;28;20207;-84
2021/09/03 04:14:27;;;;;;;9.03;8.07;;;10.10;99.90;;;;;;5048943;28;20232;-85
2021/09/03 04:16:52;;;;;;;9.20;7.30;;;10.20;99.90;;;;;;5038155;28;20645;-85
2021/09/03 04:19:19;;;;;;;9.60;8.60;;;10.20;99.90;;;;;;5033399;28;20204;-86
2021/09/03 04:21:44;;;;;;;8.57;7.43;;;10.20;99.90;;;;;;5067599;28;20195;-86
2021/09/03 04:24:10;;;;;;;8.23;7.43;;;10.20;99.90;;;;;;5040077;28;20808;-86
2021/09/03 04:26:36;;;;;;;7.80;6.43;;;10.20;99.90;;;;;;5037845;28;20645;-86
2021/09/03 04:29:01;;;;;;;15.50;7.77;;;10.10;99.90;;;;;;5051518;28;22172;-87
2021/09/03 04:31:27;;;;;;;7.63;6.83;;;10.20;99.90;;;;;;5051083;28;20417;-86
2021/09/03 04:33:57;;;;;;;7.83;6.70;;;10.20;99.90;;;;;;5042253;28;20236;-88
2021/09/03 04:36:25;;;;;;;8.93;7.60;;;10.10;99.90;;;;;;5038499;28;20717;-89
2021/09/03 04:38:51;;;;;;;8.77;7.37;;;10.10;99.90;;;;;;5034931;28;21151;-87
2021/09/03 04:41:17;;;;;;;9.83;8.10;;;10.00;99.90;;;;;;5062173;28;20431;-88
2021/09/03 04:43:43;;;;;;;8.60;7.47;;;10.10;99.90;;;;;;5038162;28;20187;-85
2021/09/03 04:46:08;;;;;;;8.70;7.73;;;10.10;99.90;;;;;;5038272;28;20203;-84
2021/09/03 04:48:34;;;;;;;9.60;7.47;;;10.10;99.90;;;;;;5040852;28;20269;-84
2021/09/03 04:51:00;;;;;;;10.67;7.83;;;10.10;99.90;;;;;;5032118;28;20449;-84
2021/09/03 04:53:26;;;;;;;8.37;7.33;;;10.10;99.90;;;;;;5059939;28;20190;-84
2021/09/03 04:55:55;;;;;;;7.20;6.50;;;10.20;99.90;;;;;;5064785;28;20576;-85
2021/09/03 04:58:21;;;;;;;9.17;7.97;;;10.20;99.90;;;;;;5054374;28;20200;-84
2021/09/03 05:00:54;;;;;;;8.47;7.63;;;10.20;99.90;;;;;;5036963;28;20967;-86
2021/09/03 05:03:23;;;;;;;10.10;9.00;;;10.20;99.90;;;;;;5056361;28;20665;-84
2021/09/03 05:05:48;;;;;;;8.97;7.37;;;10.10;99.90;;;;;;5058463;28;20453;-84
2021/09/03 05:08:14;;;;;;;9.70;8.53;;;10.00;99.90;;;;;;5060693;28;20474;-84
2021/09/03 05:10:39;;;;;;;9.03;8.10;;;10.00;99.90;;;;;;5039512;28;20196;-83
2021/09/03 05:13:05;;;;;;;11.00;8.17;;;9.90;99.90;;;;;;5051413;28;20194;-84
2021/09/03 05:15:37;;;;;;;8.83;7.67;;;9.90;99.90;;;;;;5051981;28;20522;-85
2021/09/03 05:18:05;;;;;;;8.27;7.47;;;10.00;99.90;;;;;;5053819;28;20184;-82
2021/09/03 05:20:30;;;;;;;11.93;8.10;;;10.00;99.90;;;;;;5057742;28;20451;-84
2021/09/03 05:26:15;;;;;;;10.77;8.20;;;10.10;99.90;;;;;;5046634;28;20217;-85
2021/09/03 05:31:46;;;;;;;9.03;8.00;;;10.20;99.90;;;;;;5042841;28;20281;-87
2021/09/03 05:34:12;;;;;;;9.67;8.67;;;10.30;99.90;;;;;;5039444;28;20438;-83
2021/09/03 05:36:37;;;;;;;8.87;7.53;;;10.30;99.90;;;;;;5070268;28;20645;-84
2021/09/03 05:39:09;;;;;;;11.93;8.00;;;10.50;99.90;;;;;;5058201;28;20856;-84
2021/09/03 05:41:35;;;;;;;8.27;7.47;;;10.60;99.90;;;;;;5043114;28;20312;-84
2021/09/03 05:44:00;;;;;;;9.17;8.27;;;10.60;99.90;;;;;;5058178;28;20470;-84
2021/09/03 05:46:26;;;;;;;9.00;8.10;;;10.80;99.90;;;;;;5061792;28;20199;-84
2021/09/03 05:48:52;;;;;;;10.40;8.30;;;10.90;99.90;;;;;;5049813;28;20195;-84
2021/09/03 05:51:53;;;;;;;9.67;8.10;;;11.00;99.90;;;;;;5052830;28;20952;-85
2021/09/03 05:54:33;;;;;;;9.00;8.10;;;11.20;99.90;;;;;;5047173;28;20187;-87
2021/09/03 05:57:07;;;;;;;8.90;7.60;;;11.30;99.90;;;;;;5040300;28;20963;-85
2021/09/03 05:59:34;;;;;;;11.20;8.63;;;11.50;99.90;;;;;;5050655;28;20734;-85
2021/09/03 06:02:01;;;;;;;11.97;9.77;;;11.70;99.90;;;;;;5034532;28;20198;-85
2021/09/03 06:04:28;;;;;;;10.00;8.70;;;11.80;99.90;;;;;;5029902;28;21157;-84
2021/09/03 06:07:00;;;;;;;12.00;9.07;;;11.80;99.90;;;;;;5050998;28;20462;-85
2021/09/03 06:09:46;;;;;;;9.33;8.33;;;11.70;99.90;;;;;;5041948;28;20466;-88
2021/09/03 06:12:12;;;;;;;10.30;9.20;;;11.80;99.90;;;;;;5059653;28;20600;-87
2021/09/03 06:14:38;;;;;;;10.07;9.07;;;12.00;99.90;;;;;;5066118;28;20439;-85
2021/09/03 06:17:03;;;;;;;10.50;8.90;;;12.00;99.90;;;;;;5057830;28;20584;-86
2021/09/03 06:19:30;;;;;;;16.60;8.80;;;12.00;99.90;;;;;;5054041;28;20606;-88
2021/09/03 06:21:59;;;;;;;9.70;8.70;;;12.10;99.90;;;;;;5041061;28;20578;-88
2021/09/03 06:24:28;;;;;;;11.93;8.70;;;12.20;99.90;;;;;;5041142;28;20813;-88
2021/09/03 06:26:55;;;;;;;10.37;9.37;;;12.10;99.90;;;;;;5055344;28;20469;-88
2021/09/03 06:32:09;;;;;;;11.40;8.20;;;12.20;99.90;;;;;;5043290;28;20504;-88
2021/09/03 06:34:36;;;;;;;10.90;9.90;;;12.30;99.90;;;;;;5037846;28;20438;-89
2021/09/03 06:37:02;;;;;;;10.60;9.00;;;12.40;99.90;;;;;;5035329;28;20548;-89
2021/09/03 06:39:28;;;;;;;10.30;9.30;;;12.40;99.90;;;;;;5065392;28;20441;-90
2021/09/03 06:41:54;;;;;;;9.80;8.47;;;12.50;99.90;;;;;;5046865;28;20771;-89
2021/09/03 06:44:20;;;;;;;11.93;10.03;;;12.70;99.90;;;;;;5050850;28;20441;-88
2021/09/03 06:46:50;;;;;;;12.10;8.90;;;12.80;99.90;;;;;;5061820;28;20208;-89
2021/09/03 06:49:21;;;;;;;10.77;9.67;;;12.80;99.90;;;;;;5051415;28;20191;-89
2021/09/03 06:51:47;;;;;;;10.60;9.50;;;13.00;99.90;;;;;;5036698;28;20523;-89
2021/09/03 06:54:13;;;;;;;10.50;9.50;;;13.20;99.90;;;;;;5067244;28;20453;-90
2021/09/03 06:56:43;;;;;;;12.00;9.10;;;13.40;99.90;;;;;;5053084;28;20438;-90
2021/09/03 06:59:13;;;;;;;10.00;9.00;;;13.50;99.90;;;;;;5035895;28;20257;-90
2021/09/03 07:01:39;;;;;;;10.63;9.10;;;13.70;99.90;;;;;;5040498;28;20963;-86
2021/09/03 07:04:05;;;;;;;10.73;9.63;;;13.90;99.90;;;;;;5051415;28;20450;-85
2021/09/03 07:06:31;;;;;;;9.10;8.20;;;14.00;99.90;;;;;;5053959;28;20298;-85
2021/09/03 07:08:57;;;;;;;11.07;9.90;;;14.10;99.90;;;;;;5074240;28;20475;-85
2021/09/03 07:11:24;;;;;;;10.83;9.53;;;14.00;99.90;;;;;;5071720;28;20869;-85
2021/09/03 07:13:50;;;;;;;10.90;9.80;;;13.90;99.90;;;;;;5050892;28;20488;-85
2021/09/03 07:16:15;;;;;;;13.27;10.20;;;13.90;99.90;;;;;;5054743;28;20481;-86
2021/09/03 07:18:41;;;;;;;11.50;10.30;;;14.10;99.90;;;;;;5068377;28;20450;-85
2021/09/03 07:21:07;;;;;;;11.17;10.00;;;14.10;99.90;;;;;;5035752;28;20538;-86
2021/09/03 07:23:33;;;;;;;12.80;10.80;;;14.40;99.90;;;;;;5045159;28;20202;-85
2021/09/03 07:26:01;;;;;;;11.60;10.50;;;14.80;99.90;;;;;;5068569;28;20624;-85
2021/09/03 07:28:27;;;;;;;10.00;9.10;;;15.00;99.90;;;;;;5056326;28;20215;-84
2021/09/03 07:30:53;;;;;;;10.80;9.73;;;15.20;99.90;;;;;;5065910;28;20446;-83
2021/09/03 07:33:19;;;;;;;10.77;9.57;;;15.50;99.90;;;;;;5053962;28;20450;-84
2021/09/03 07:35:45;;;;;;;10.10;9.00;;;15.60;99.90;;;;;;5040440;28;20434;-87
2021/09/03 07:38:11;;;;;;;11.57;9.40;;;15.70;99.90;;;;;;5052767;28;20188;-85
2021/09/03 07:40:37;;;;;;;10.40;9.45;;;15.70;99.90;;;;;;5054730;28;22039;-86
2021/09/03 07:43:07;;;;;;;11.97;9.50;;;15.90;99.90;;;;;;5035659;28;20179;-85
2021/09/03 07:45:37;;;;;;;11.73;10.20;;;16.00;99.90;;;;;;5053689;28;20449;-85
2021/09/03 07:48:05;;;;;;;11.10;10.00;;;16.00;99.90;;;;;;5055671;28;20852;-85
2021/09/03 07:50:32;;;;;;;12.60;10.43;;;16.10;99.90;;;;;;5054199;28;20542;-85
2021/09/03 07:52:59;;;;;;;10.83;9.70;;;16.30;99.90;;;;;;5067927;28;20786;-84
2021/09/03 07:55:25;;;;;;;9.80;8.80;;;16.30;99.90;;;;;;5057891;28;20424;-84
2021/09/03 07:57:50;;;;;;;11.00;9.90;;;16.50;99.90;;;;;;5070326;28;20793;-85
2021/09/03 08:00:16;;;;;;;10.67;9.57;;;16.60;99.90;;;;;;5067760;28;20522;-86
2021/09/03 08:02:42;;;;;;;9.87;8.87;;;16.90;99.90;;;;;;5040619;28;20195;-86
2021/09/03 08:05:09;;;;;;;8.87;7.97;;;17.00;99.90;;;;;;5050068;28;20442;-84
2021/09/03 08:07:34;;;;;;;9.80;8.90;;;16.90;99.90;;;;;;5053937;28;20470;-85
2021/09/03 08:10:00;;;;;;;9.13;8.30;;;16.60;99.90;;;;;;5059897;28;20966;-85
2021/09/03 08:12:26;;;;;;;9.43;8.53;;;16.90;99.90;;;;;;5077208;28;20264;-84
2021/09/03 08:14:52;;;;;;;10.40;8.90;;;17.20;99.90;;;;;;5055464;28;20194;-83
2021/09/03 08:17:17;;;;;;;9.60;8.70;;;17.30;99.90;;;;;;5054774;28;20195;-84
2021/09/03 08:19:44;;;;;;;10.57;8.60;;;17.50;99.90;;;;;;5056910;28;20229;-84
2021/09/03 08:22:10;;;;;;;8.97;8.07;;;17.60;99.90;;;;;;5051381;28;20183;-84
2021/09/03 08:24:51;;;;;;;9.77;8.80;;;17.50;99.90;;;;;;5054226;28;20923;-86
2021/09/03 08:27:17;;;;;;;9.40;8.57;;;17.50;99.90;;;;;;5044997;28;20511;-87
2021/09/03 08:29:45;;;;;;;9.73;8.73;;;17.70;99.90;;;;;;5043589;28;20442;-85
2021/09/03 08:32:11;;;;;;;11.10;9.30;;;17.80;99.90;;;;;;5038706;28;20187;-84
2021/09/03 08:34:37;;;;;;;9.70;8.70;;;17.90;99.90;;;;;;5041894;28;20453;-85
2021/09/03 08:37:02;;;;;;;9.23;8.43;;;18.00;99.90;;;;;;5055163;28;20184;-85
2021/09/03 08:39:28;;;;;;;11.27;9.00;;;18.00;99.90;;;;;;5071284;28;20262;-86
2021/09/03 08:41:54;;;;;;;9.17;8.27;;;18.10;99.90;;;;;;5058235;28;20649;-84
2021/09/03 08:44:19;;;;;;;9.47;8.40;;;18.30;99.90;;;;;;5038267;28;20207;-85
2021/09/03 08:46:45;;;;;;;9.27;8.37;;;18.40;99.90;;;;;;5039447;28;20653;-84
2021/09/03 08:49:11;;;;;;;10.00;8.97;;;18.50;99.90;;;;;;5041572;28;20321;-86
2021/09/03 08:51:37;;;;;;;11.60;8.13;;;18.70;99.90;;;;;;5041535;28;20218;-85
2021/09/03 08:54:06;;;;;;;10.13;8.13;;;18.80;99.90;;;;;;5031486;28;20434;-84
2021/09/03 08:56:49;;;;;;;9.47;8.50;;;18.70;99.90;;;;;;5036600;28;20533;-87
2021/09/03 09:02:24;;;;;;;9.03;7.80;;;18.80;99.90;;;;;;5036134;28;20449;-87
2021/09/03 09:04:58;;;;;;;11.70;8.20;;;19.10;99.90;;;;;;5058430;28;20448;-88
2021/09/03 09:07:51;;;;;;;9.37;8.47;;;19.40;99.90;;;;;;5026475;28;20760;-89
2021/09/03 09:10:33;;;;;;;10.23;9.00;;;19.20;99.90;;;;;;5033129;28;20430;-87
2021/09/03 09:13:05;;;;;;;12.23;9.07;;;19.30;99.90;;;;;;5035441;28;20445;-87
2021/09/03 09:15:57;;;;;;;9.10;7.53;;;19.40;99.90;;;;;;5037574;28;20525;-89
2021/09/03 09:18:56;;;;;;;10.23;8.00;;;19.40;99.90;;;;;;5028418;28;21211;-87
2021/09/03 09:22:06;;;;;;;9.80;8.80;;;19.80;99.90;;;;;;5048053;28;20868;-90
2021/09/03 09:24:46;;;;;;;11.30;9.63;;;20.10;99.90;;;;;;5038592;28;20433;-89
2021/09/03 09:27:26;;;;;;;9.70;8.70;;;20.30;99.90;;;;;;5055748;28;20470;-89
2021/09/03 09:29:52;;;;;;;9.60;8.70;;;20.30;99.90;;;;;;5049646;28;20510;-91
2021/09/03 09:32:19;;;;;;;8.90;8.00;;;20.30;99.90;;;;;;5042156;28;20442;-87
2021/09/03 09:34:45;;;;;;;9.77;8.60;;;20.30;99.90;;;;;;5063103;28;20437;-88
2021/09/03 09:37:15;;;;;;;9.20;8.10;;;19.80;99.90;;;;;;5051114;28;20442;-88
2021/09/03 09:39:45;;;;;;;9.50;8.60;;;20.20;99.90;;;;;;5054315;28;20188;-89
2021/09/03 09:42:40;;;;;;;9.30;8.53;;;20.20;99.90;;;;;;5057263;28;20442;-88
2021/09/03 09:45:09;;;;;;;8.70;7.80;;;20.40;99.90;;;;;;5023807;28;20487;-88
2021/09/03 09:47:37;;;;;;;9.83;8.03;;;20.40;99.90;;;;;;5035140;28;20508;-88
2021/09/03 09:50:25;;;;;;;10.90;8.90;;;20.20;99.90;;;;;;5042370;28;20442;-89
2021/09/03 09:52:51;;;;;;;9.37;8.30;;;20.40;99.90;;;;;;5038867;28;20483;-88
2021/09/03 09:55:18;;;;;;;9.60;8.63;;;20.60;99.90;;;;;;5037752;28;20458;-90
2021/09/03 09:57:48;;;;;;;8.77;7.87;;;20.50;99.90;;;;;;5052966;28;20462;-90
2021/09/03 10:00:14;;;;;;;8.67;7.87;;;21.00;99.90;;;;;;5052844;28;20434;-87
2021/09/03 10:02:47;;;;;;;9.53;8.63;;;21.20;99.90;;;;;;5049658;28;20461;-89
2021/09/03 10:05:14;;;;;;;11.37;10.07;;;21.30;99.90;;;;;;5033405;28;20203;-89
2021/09/03 10:07:40;;;;;;;9.33;8.53;;;21.40;99.90;;;;;;5060857;28;20512;-89
2021/09/03 10:10:06;;;;;;;9.90;9.00;;;21.20;99.90;;;;;;5053978;28;20469;-88
2021/09/03 10:12:32;;;;;;;10.40;8.30;;;21.40;99.90;;;;;;5054536;28;20947;-88
2021/09/03 10:15:08;;;;;;;8.90;8.10;;;21.50;99.90;;;;;;5052882;28;20442;-89
2021/09/03 10:17:43;;;;;;;9.73;8.73;;;21.90;99.90;;;;;;5052835;28;20210;-89
2021/09/03 10:20:19;;;;;;;9.63;8.67;;;22.20;99.90;;;;;;5038134;28;20580;-88
2021/09/03 10:22:50;;;;;;;9.10;8.07;;;22.30;99.90;;;;;;5036657;28;20450;-90
2021/09/03 10:25:18;;;;;;;10.40;9.10;;;22.10;99.90;;;;;;5030786;28;20922;-87
2021/09/03 10:28:10;;;;;;;10.37;8.63;;;22.20;99.90;;;;;;5037095;28;20863;-89
2021/09/03 10:30:38;;;;;;;8.90;8.10;;;22.20;99.90;;;;;;5053005;28;20535;-88
2021/09/03 10:33:12;;;;;;;9.40;8.00;;;22.40;99.90;;;;;;5035052;28;20508;-91
2021/09/03 10:35:38;;;;;;;9.43;8.40;;;22.60;99.90;;;;;;5052816;28;20434;-88
2021/09/03 10:38:34;;;;;;;8.90;8.10;;;22.80;99.90;;;;;;5034015;28;20471;-89
2021/09/03 10:41:05;;;;;;;8.70;7.90;;;22.90;99.90;;;;;;5032821;28;20185;-88
2021/09/03 10:43:56;;;;;;;9.40;8.47;;;23.00;99.90;;;;;;5023603;28;20862;-89
2021/09/03 10:46:24;;;;;;;8.97;8.07;;;23.40;99.10;;;;;;5052793;28;20447;-88
2021/09/03 10:48:51;;;;;;;9.40;8.43;;;23.60;99.90;;;;;;5063715;28;20477;-88
2021/09/03 10:51:38;;;;;;;9.17;8.37;;;23.40;99.60;;;;;;5056006;28;20554;-89
2021/09/03 10:54:19;;;;;;;9.20;8.30;;;23.10;99.70;;;;;;5019259;28;20531;-88
2021/09/03 10:56:59;;;;;;;8.20;7.50;;;23.60;99.90;;;;;;5034758;28;20496;-89
2021/09/03 11:00:04;;;;;;;8.10;7.40;;;23.60;99.10;;;;;;5050464;28;20457;-90
2021/09/03 11:02:30;;;;;;;8.10;7.40;;;23.60;98.50;;;;;;5035553;28;20449;-89
2021/09/03 11:05:10;;;;;;;8.50;7.70;;;23.60;98.50;;;;;;5051694;28;20445;-89
2021/09/03 11:07:46;;;;;;;8.40;7.60;;;23.50;99.40;;;;;;5055969;28;20225;-90
2021/09/03 11:10:18;;;;;;;8.50;7.77;;;23.60;99.00;;;;;;5064187;28;20487;-90
2021/09/03 11:12:53;;;;;;;8.57;7.87;;;24.00;97.30;;;;;;5046889;28;20455;-88
2021/09/03 11:15:20;;;;;;;9.40;8.60;;;24.30;99.10;;;;;;5050397;28;20884;-89
2021/09/03 11:17:48;;;;;;;8.57;7.70;;;24.40;98.70;;;;;;5049458;28;20784;-90
2021/09/03 11:20:14;;;;;;;8.63;7.93;;;24.40;97.90;;;;;;5048240;28;20446;-87
2021/09/03 11:22:41;;;;;;;9.30;8.03;;;24.40;98.00;;;;;;5030755;28;20450;-90
2021/09/03 11:25:08;;;;;;;8.80;8.03;;;24.40;99.00;;;;;;5034269;28;20438;-90
2021/09/03 11:27:36;;;;;;;7.77;7.07;;;24.70;96.90;;;;;;5034849;28;20554;-92
2021/09/03 11:30:07;;;;;;;7.63;7.03;;;24.90;96.70;;;;;;5063728;28;20450;-90
2021/09/03 11:32:38;;;;;;;8.83;8.03;;;25.00;97.00;;;;;;5051555;28;20435;-91
2021/09/03 11:35:03;;;;;;;8.60;7.63;;;25.30;96.50;;;;;;5035629;28;20456;-89
2021/09/03 11:37:43;;;;;;;9.57;8.67;;;25.10;95.70;;;;;;5033401;28;20451;-90
2021/09/03 11:40:33;;;;;;;13.30;8.07;;;24.90;96.70;;;;;;5049513;28;20303;-89
2021/09/03 11:43:00;;;;;;;8.10;7.40;;;24.80;95.90;;;;;;5037618;28;20438;-92
2021/09/03 11:45:43;;;;;;;7.87;7.23;;;25.10;97.30;;;;;;5040224;28;20573;-90
2021/09/03 11:48:18;;;;;;;8.40;7.60;;;25.20;95.90;;;;;;5032388;28;20512;-90
2021/09/03 11:50:46;;;;;;;8.53;7.67;;;25.40;96.90;;;;;;5030825;28;20439;-88
2021/09/03 11:53:15;;;;;;;8.27;6.97;;;25.60;95.40;;;;;;5036720;28;20466;-88
2021/09/03 11:55:43;;;;;;;8.27;7.47;;;25.50;93.90;;;;;;5032070;28;20518;-88
2021/09/03 11:58:11;;;;;;;7.47;6.77;;;25.70;93.60;;;;;;5035475;28;20450;-88
2021/09/03 12:00:43;;;;;;;7.37;6.77;;;25.80;95.70;;;;;;5051200;28;20453;-89
2021/09/03 12:03:20;;;;;;;7.67;6.80;;;25.20;94.90;;;;;;5051216;28;20485;-86
2021/09/03 12:05:52;;;;;;;7.13;6.53;;;25.40;94.60;;;;;;5032893;28;20449;-89
2021/09/03 12:08:35;;;;;;;7.43;6.83;;;25.20;95.50;;;;;;5049528;28;20477;-88
2021/09/03 12:11:06;;;;;;;7.30;6.70;;;25.50;93.90;;;;;;5048295;28;20827;-89
2021/09/03 12:14:03;;;;;;;7.80;7.00;;;25.60;95.00;;;;;;5036194;28;20485;-88
2021/09/03 12:16:31;;;;;;;7.80;7.13;;;25.90;94.40;;;;;;5059379;28;20439;-89
2021/09/03 12:18:59;;;;;;;7.57;6.93;;;26.00;93.90;;;;;;5063637;28;20822;-88
2021/09/03 12:21:26;;;;;;;7.90;7.20;;;26.30;94.40;;;;;;5034191;28;20782;-89
2021/09/03 12:23:56;;;;;;;7.20;6.60;;;25.80;93.90;;;;;;5037963;28;20860;-89
2021/09/03 12:26:50;;;;;;;6.80;6.20;;;26.00;93.50;;;;;;5031402;28;20446;-88
2021/09/03 12:29:21;;;;;;;7.20;6.60;;;26.20;92.70;;;;;;5050976;28;20446;-88
2021/09/03 12:31:59;;;;;;;6.57;5.90;;;25.20;92.60;;;;;;5047214;28;20523;-89
2021/09/03 12:34:26;;;;;;;7.07;6.57;;;25.20;93.30;;;;;;5033252;28;21175;-89
2021/09/03 12:36:58;;;;;;;7.47;6.87;;;25.60;93.60;;;;;;5049692;28;21010;-90
2021/09/03 12:39:40;;;;;;;8.20;7.50;;;25.90;94.80;;;;;;5040407;28;20448;-90
2021/09/03 12:42:14;;;;;;;7.13;6.43;;;25.90;92.80;;;;;;5067736;28;20473;-89
2021/09/03 12:44:43;;;;;;;7.37;6.77;;;25.70;93.20;;;;;;5043751;28;20426;-89
2021/09/03 12:47:09;;;;;;;6.87;6.37;;;25.20;93.40;;;;;;5043216;28;20464;-87
2021/09/03 12:49:41;;;;;;;7.67;7.07;;;25.40;94.50;;;;;;5045744;28;20447;-88
2021/09/03 12:52:14;;;;;;;7.30;6.70;;;26.00;93.90;;;;;;5059099;28;20190;-88
2021/09/03 12:54:40;;;;;;;7.20;6.60;;;26.30;93.00;;;;;;5038922;28;20459;-88
2021/09/03 12:57:07;;;;;;;7.67;6.97;;;26.50;91.90;;;;;;5043543;28;20795;-88
2021/09/03 12:59:33;;;;;;;6.70;6.20;;;26.70;91.60;;;;;;5020036;28;20183;-88
2021/09/03 13:01:59;;;;;;;6.63;6.03;;;26.80;92.30;;;;;;5040060;28;20450;-88
2021/09/03 13:04:26;;;;;;;6.20;5.70;;;26.80;91.90;;;;;;5022790;28;20453;-88